createdAt,value
2023-05-08T00:00:43.868Z,10.70
2023-05-08T00:03:11.702Z,10.70
2023-05-08T00:05:41.761Z,10.80
2023-05-08T00:08:09.502Z,10.80
2023-05-08T00:10:37.216Z,10.70
2023-05-08T00:13:05.059Z,10.80
2023-05-08T00:15:33.151Z,10.70
2023-05-08T00:18:01.118Z,10.80
2023-05-08T00:20:29.065Z,10.80
2023-05-08T00:22:58.020Z,10.70
2023-05-08T00:25:26.905Z,10.70
2023-05-08T00:27:54.549Z,10.60
2023-05-08T00:30:22.485Z,10.50
2023-05-08T00:32:50.373Z,10.50
2023-05-08T00:35:18.249Z,10.60
2023-05-08T00:37:46.183Z,10.60
2023-05-08T00:40:14.468Z,10.40
2023-05-08T00:42:42.588Z,10.40
2023-05-08T00:45:10.891Z,10.50
2023-05-08T00:47:39.253Z,10.50
2023-05-08T00:50:07.748Z,10.50
2023-05-08T00:52:35.521Z,10.60
2023-05-08T00:55:06.678Z,10.60
2023-05-08T00:57:35.894Z,10.70
2023-05-08T01:00:05.785Z,10.60
2023-05-08T01:02:35.394Z,10.60
2023-05-08T01:05:04.193Z,10.60
2023-05-08T01:07:33.133Z,10.60
2023-05-08T01:10:01.012Z,10.60
2023-05-08T01:12:47.619Z,10.50
2023-05-08T01:15:20.428Z,10.50
2023-05-08T01:18:08.809Z,10.40
2023-05-08T01:20:55.719Z,10.40
2023-05-08T01:23:49.097Z,10.40
2023-05-08T01:26:41.725Z,10.30
2023-05-08T01:29:44.109Z,10.20
2023-05-08T01:32:23.695Z,10.30
2023-05-08T01:35:17.739Z,10.30
2023-05-08T01:37:48.230Z,10.30
2023-05-08T01:40:47.157Z,10.30
2023-05-08T01:43:26.683Z,10.30
2023-05-08T01:45:56.682Z,10.30
2023-05-08T01:48:36.115Z,10.30
2023-05-08T01:51:14.558Z,10.30
2023-05-08T01:53:47.866Z,10.30
2023-05-08T01:56:19.437Z,10.40
2023-05-08T01:58:48.698Z,10.40
2023-05-08T02:01:21.058Z,10.40
2023-05-08T02:03:50.173Z,10.40
2023-05-08T02:06:22.122Z,10.40
2023-05-08T02:08:52.564Z,10.40
2023-05-08T02:11:21.825Z,10.40
2023-05-08T02:13:51.408Z,10.30
2023-05-08T02:16:20.731Z,10.40
2023-05-08T02:18:57.461Z,10.30
2023-05-08T02:21:26.878Z,10.40
2023-05-08T02:23:57.063Z,10.30
2023-05-08T02:26:26.683Z,10.30
2023-05-08T02:28:56.396Z,10.30
2023-05-08T02:31:25.386Z,10.30
2023-05-08T02:33:53.993Z,10.20
2023-05-08T02:36:23.666Z,10.20
2023-05-08T02:38:54.334Z,10.20
2023-05-08T02:41:26.168Z,10.10
2023-05-08T02:43:54.727Z,10.20
2023-05-08T02:46:34.681Z,10.20
2023-05-08T02:49:13.292Z,10.20
2023-05-08T02:52:00.562Z,10.30
2023-05-08T02:54:29.504Z,10.30
2023-05-08T02:57:23.034Z,10.30
2023-05-08T03:00:16.709Z,10.30
2023-05-08T03:02:49.099Z,10.30
2023-05-08T03:05:44.687Z,10.40
2023-05-08T03:08:16.248Z,10.30
2023-05-08T03:10:49.396Z,10.30
2023-05-08T03:13:20.608Z,10.40
2023-05-08T03:15:56.469Z,10.40
2023-05-08T03:18:36.508Z,10.40
2023-05-08T03:21:07.510Z,10.40
2023-05-08T03:23:38.956Z,10.50
2023-05-08T03:26:07.975Z,10.40
2023-05-08T03:28:38.017Z,10.50
2023-05-08T03:31:06.655Z,10.40
2023-05-08T03:33:37.374Z,10.30
2023-05-08T03:36:06.200Z,10.40
2023-05-08T03:38:35.923Z,10.40
2023-05-08T03:41:04.322Z,10.40
2023-05-08T03:43:33.016Z,10.40
2023-05-08T03:46:02.477Z,10.50
2023-05-08T03:48:33.361Z,10.40
2023-05-08T03:51:05.723Z,10.50
2023-05-08T03:53:35.954Z,10.50
2023-05-08T03:56:04.841Z,10.50
2023-05-08T03:58:54.080Z,10.50
2023-05-08T04:01:41.009Z,10.50
2023-05-08T04:04:18.252Z,10.40
2023-05-08T04:06:55.490Z,10.30
2023-05-08T04:10:01.308Z,10.40
2023-05-08T04:12:37.648Z,10.40
2023-05-08T04:15:10.093Z,10.40
2023-05-08T04:17:55.892Z,10.30
2023-05-08T04:20:27.674Z,10.30
2023-05-08T04:22:58.217Z,10.40
2023-05-08T04:25:27.097Z,10.40
2023-05-08T04:27:57.538Z,10.50
2023-05-08T04:30:27.335Z,10.50
2023-05-08T04:32:56.285Z,10.50
2023-05-08T04:35:24.194Z,10.50
2023-05-08T04:37:52.761Z,10.50
2023-05-08T04:40:20.578Z,10.50
2023-05-08T04:42:48.653Z,10.60
2023-05-08T04:45:19.389Z,10.70
2023-05-08T04:47:47.237Z,10.70
2023-05-08T04:50:15.098Z,10.60
2023-05-08T04:52:43.667Z,10.70
2023-05-08T04:55:12.015Z,10.70
2023-05-08T04:57:40.325Z,10.80
2023-05-08T05:00:10.110Z,10.80
2023-05-08T05:02:41.073Z,10.90
2023-05-08T05:05:09.490Z,10.90
2023-05-08T05:07:37.533Z,10.80
2023-05-08T05:10:06.604Z,10.90
2023-05-08T05:12:35.006Z,10.90
2023-05-08T05:15:03.492Z,11.10
2023-05-08T05:17:35.488Z,11.10
2023-05-08T05:20:05.921Z,11.30
2023-05-08T05:22:33.828Z,11.30
2023-05-08T05:25:02.146Z,11.30
2023-05-08T05:27:29.978Z,11.40
2023-05-08T05:29:58.701Z,11.50
2023-05-08T05:32:27.472Z,11.60
2023-05-08T05:34:55.663Z,11.70
2023-05-08T05:37:23.749Z,11.70
2023-05-08T05:39:51.795Z,11.80
2023-05-08T05:42:20.217Z,11.80
2023-05-08T05:44:48.036Z,11.90
2023-05-08T05:47:16.081Z,12.00
2023-05-08T05:49:46.933Z,12.20
2023-05-08T05:52:15.229Z,12.40
2023-05-08T05:54:43.002Z,12.50
2023-05-08T05:57:10.886Z,12.60
2023-05-08T05:59:38.749Z,12.80
2023-05-08T06:02:10.509Z,12.90
2023-05-08T06:04:39.252Z,13.00
2023-05-08T06:07:08.508Z,13.20
2023-05-08T06:09:36.936Z,13.30
2023-05-08T06:12:04.715Z,13.40
2023-05-08T06:14:32.634Z,13.50
2023-05-08T06:17:00.703Z,13.60
2023-05-08T06:19:28.938Z,13.70
2023-05-08T06:21:56.792Z,13.90
2023-05-08T06:24:24.574Z,14.10
2023-05-08T06:26:52.509Z,14.30
2023-05-08T06:29:20.240Z,14.60
2023-05-08T06:31:48.449Z,14.80
2023-05-08T06:34:16.163Z,14.70
2023-05-08T06:36:43.914Z,14.50
2023-05-08T06:39:11.614Z,14.50
2023-05-08T06:41:39.393Z,14.40
2023-05-08T06:44:07.164Z,14.30
2023-05-08T06:46:34.994Z,14.40
2023-05-08T06:49:02.711Z,14.50
2023-05-08T06:51:31.615Z,14.80
2023-05-08T06:53:59.569Z,14.70
2023-05-08T06:56:27.577Z,14.70
2023-05-08T06:59:07.140Z,14.40
2023-05-08T07:01:37.626Z,14.60
2023-05-08T07:04:05.870Z,14.80
2023-05-08T07:06:34.273Z,14.90
2023-05-08T07:09:02.142Z,15.00
2023-05-08T07:11:29.933Z,15.10
2023-05-08T07:13:57.806Z,15.00
2023-05-08T07:16:25.770Z,15.10
2023-05-08T07:18:53.496Z,15.00
2023-05-08T07:21:21.833Z,14.90
2023-05-08T07:23:51.830Z,14.60
2023-05-08T07:26:19.721Z,14.60
2023-05-08T07:28:47.669Z,14.90
2023-05-08T07:31:16.195Z,14.90
2023-05-08T07:33:43.988Z,15.10
2023-05-08T07:36:12.160Z,15.40
2023-05-08T07:38:40.023Z,15.80
2023-05-08T07:41:08.451Z,16.20
2023-05-08T07:43:37.184Z,16.40
2023-05-08T07:46:06.234Z,16.60
2023-05-08T07:48:34.192Z,16.90
2023-05-08T07:51:02.008Z,17.00
2023-05-08T07:53:29.801Z,17.50
2023-05-08T07:55:57.668Z,17.50
2023-05-08T07:58:25.443Z,17.40
2023-05-08T08:00:53.776Z,17.50
2023-05-08T08:03:21.718Z,17.40
2023-05-08T08:05:49.532Z,16.90
2023-05-08T08:08:17.400Z,17.20
2023-05-08T08:10:45.065Z,17.70
2023-05-08T08:13:12.849Z,17.70
2023-05-08T08:15:40.604Z,17.40
2023-05-08T08:18:08.487Z,17.30
2023-05-08T08:20:36.249Z,17.30
2023-05-08T08:23:03.973Z,17.20
2023-05-08T08:25:31.730Z,17.20
2023-05-08T08:27:59.522Z,17.30
2023-05-08T08:30:28.084Z,17.80
2023-05-08T08:32:56.023Z,18.10
2023-05-08T08:35:29.319Z,18.40
2023-05-08T08:37:57.559Z,18.40
2023-05-08T08:40:25.656Z,19.00
2023-05-08T08:42:54.500Z,19.10
2023-05-08T08:45:22.290Z,18.70
2023-05-08T08:47:52.999Z,18.30
2023-05-08T08:50:22.262Z,18.20
2023-05-08T08:53:00.829Z,18.00
2023-05-08T08:55:30.002Z,18.10
2023-05-08T08:58:07.793Z,18.30
2023-05-08T09:00:37.936Z,19.30
2023-05-08T09:03:08.075Z,20.00
2023-05-08T09:05:37.091Z,19.60
2023-05-08T09:08:05.873Z,18.80
2023-05-08T09:10:36.455Z,18.40
2023-05-08T09:13:05.230Z,18.20
2023-05-08T09:15:37.156Z,18.20
2023-05-08T09:18:05.521Z,18.60
2023-05-08T09:20:33.450Z,19.40
2023-05-08T09:23:04.701Z,19.50
2023-05-08T09:25:47.775Z,20.00
2023-05-08T09:28:20.652Z,20.50
2023-05-08T09:30:57.278Z,19.80
2023-05-08T09:33:29.100Z,19.20
2023-05-08T09:35:57.743Z,18.70
2023-05-08T09:38:36.691Z,18.60
2023-05-08T09:41:11.349Z,18.20
2023-05-08T09:43:39.513Z,18.40
2023-05-08T09:46:19.597Z,18.00
2023-05-08T09:48:47.536Z,18.00
2023-05-08T09:51:15.428Z,18.20
2023-05-08T09:53:43.845Z,18.20
2023-05-08T09:56:12.055Z,18.60
2023-05-08T09:58:44.541Z,18.90
2023-05-08T10:01:32.301Z,18.80
2023-05-08T10:04:01.422Z,18.50
2023-05-08T10:06:29.998Z,18.30
2023-05-08T10:09:14.826Z,18.70
2023-05-08T10:11:52.446Z,19.20
2023-05-08T10:14:21.030Z,19.00
2023-05-08T10:16:51.821Z,19.20
2023-05-08T10:19:21.437Z,19.50
2023-05-08T10:21:53.991Z,19.20
2023-05-08T10:24:27.532Z,19.10
2023-05-08T10:27:07.530Z,18.70
2023-05-08T10:29:56.078Z,18.60
2023-05-08T10:32:31.890Z,18.40
2023-05-08T10:35:00.783Z,18.50
2023-05-08T10:37:30.943Z,19.30
2023-05-08T10:40:03.544Z,19.30
2023-05-08T10:42:33.551Z,19.80
2023-05-08T10:45:02.704Z,19.90
2023-05-08T10:47:45.839Z,20.20
2023-05-08T10:50:28.227Z,20.70
2023-05-08T10:53:17.990Z,21.40
2023-05-08T10:55:50.118Z,20.70
2023-05-08T10:58:23.894Z,20.20
2023-05-08T11:00:57.703Z,20.50
2023-05-08T11:03:32.689Z,20.70
2023-05-08T11:06:03.917Z,20.60
2023-05-08T11:08:32.758Z,21.40
2023-05-08T11:11:00.758Z,21.20
2023-05-08T11:13:34.159Z,22.00
2023-05-08T11:16:02.480Z,22.40
2023-05-08T11:18:45.718Z,22.60
2023-05-08T11:21:23.659Z,22.70
2023-05-08T11:23:58.157Z,22.90
2023-05-08T11:26:42.508Z,22.20
2023-05-08T11:29:17.881Z,22.00
2023-05-08T11:31:53.276Z,22.30
2023-05-08T11:34:43.573Z,22.30
2023-05-08T11:37:19.562Z,21.90
2023-05-08T11:39:47.883Z,21.30
2023-05-08T11:42:27.924Z,20.90
2023-05-08T11:45:14.120Z,20.90
2023-05-08T11:47:44.795Z,21.60
2023-05-08T11:50:14.252Z,21.90
2023-05-08T11:52:43.654Z,22.60
2023-05-08T11:55:14.211Z,22.70
2023-05-08T11:57:41.912Z,23.30
2023-05-08T12:00:12.121Z,23.50
2023-05-08T12:02:42.084Z,23.60
2023-05-08T12:05:11.297Z,22.80
2023-05-08T12:07:46.855Z,22.70
2023-05-08T12:10:17.130Z,22.60
2023-05-08T12:12:45.620Z,22.90
2023-05-08T12:15:15.298Z,23.00
2023-05-08T12:17:43.647Z,22.20
2023-05-08T12:20:15.699Z,22.70
2023-05-08T12:22:51.644Z,22.10
2023-05-08T12:25:20.127Z,21.90
2023-05-08T12:27:48.676Z,21.90
2023-05-08T12:30:17.317Z,20.90
2023-05-08T12:32:47.089Z,20.90
2023-05-08T12:35:16.022Z,20.80
2023-05-08T12:37:46.113Z,20.90
2023-05-08T12:40:31.822Z,20.80
2023-05-08T12:43:03.980Z,20.90
2023-05-08T12:45:34.378Z,20.80
2023-05-08T12:48:04.406Z,20.70
2023-05-08T12:50:37.534Z,21.00
2023-05-08T12:53:12.939Z,20.80
2023-05-08T12:55:55.900Z,21.00
2023-05-08T12:58:29.997Z,20.60
2023-05-08T13:01:06.139Z,20.60
2023-05-08T13:03:34.392Z,20.50
2023-05-08T13:06:02.144Z,20.10
2023-05-08T13:08:33.852Z,19.60
2023-05-08T13:11:03.116Z,19.70
2023-05-08T13:41:04.280Z,18.60
2023-05-08T13:43:32.026Z,18.00
2023-05-08T13:45:59.609Z,18.00
2023-05-08T13:48:27.309Z,17.80
2023-05-08T13:50:54.904Z,17.60
2023-05-08T13:53:22.389Z,17.50
2023-05-08T13:55:50.044Z,17.30
2023-05-08T13:58:17.564Z,17.20
2023-05-08T14:00:45.519Z,17.00
2023-05-08T14:03:13.175Z,17.00
2023-05-08T14:05:40.918Z,16.90
2023-05-08T14:08:08.615Z,16.70
2023-05-08T14:10:36.361Z,16.70
2023-05-08T14:13:04.002Z,16.70
2023-05-08T14:15:37.127Z,16.70
2023-05-08T14:18:05.958Z,16.70
2023-05-08T14:20:33.606Z,16.70
2023-05-08T14:23:01.356Z,16.70
2023-05-08T14:25:29.043Z,16.80
2023-05-08T14:27:57.301Z,16.80
2023-05-08T14:30:24.972Z,16.80
2023-05-08T14:32:52.548Z,16.70
2023-05-08T14:35:20.243Z,16.60
2023-05-08T14:37:47.800Z,16.60
2023-05-08T14:40:15.391Z,16.60
2023-05-08T14:42:43.049Z,16.40
2023-05-08T14:45:10.950Z,16.30
2023-05-08T14:47:39.638Z,16.20
2023-05-08T14:50:26.435Z,16.00
2023-05-08T14:52:54.749Z,15.90
2023-05-08T14:55:22.863Z,15.90
2023-05-08T14:57:51.060Z,15.70
2023-05-08T15:00:19.222Z,15.60
2023-05-08T15:02:47.032Z,15.30
2023-05-08T15:08:02.985Z,15.30
2023-05-08T15:10:30.707Z,15.00
2023-05-08T15:12:58.404Z,14.80
2023-05-08T15:15:26.017Z,14.30
2023-05-08T15:17:53.938Z,14.00
2023-05-08T15:32:43.423Z,13.40
2023-05-08T15:35:11.363Z,13.10
2023-05-08T15:37:39.851Z,13.00
2023-05-08T15:40:08.080Z,12.90
2023-05-08T15:42:43.643Z,12.90
2023-05-08T15:45:12.223Z,12.80
2023-05-08T15:47:40.765Z,12.80
2023-05-08T15:50:08.864Z,12.90
2023-05-08T15:52:36.508Z,13.00
2023-05-08T15:55:04.513Z,13.10
2023-05-08T15:57:32.146Z,13.10
2023-05-08T15:59:59.910Z,13.20
2023-05-08T16:02:27.699Z,13.00
2023-05-08T16:04:55.479Z,12.70
2023-05-08T16:07:23.226Z,12.90
2023-05-08T16:09:50.844Z,12.80
2023-05-08T16:12:19.870Z,12.80
2023-05-08T16:14:47.491Z,12.90
2023-05-08T16:17:16.464Z,12.90
2023-05-08T16:19:44.176Z,12.80
2023-05-08T16:22:11.857Z,12.90
2023-05-08T16:24:39.460Z,12.90
2023-05-08T16:27:07.095Z,12.90
2023-05-08T16:29:34.755Z,13.00
2023-05-08T16:32:02.500Z,13.10
2023-05-08T16:34:30.242Z,12.90
2023-05-08T16:36:58.674Z,12.90
2023-05-08T16:39:26.732Z,13.10
2023-05-08T16:41:54.461Z,13.10
2023-05-08T16:44:22.497Z,13.10
2023-05-08T16:46:50.637Z,12.90
2023-05-08T16:49:23.257Z,12.80
2023-05-08T16:54:51.368Z,12.80
2023-05-08T16:57:33.846Z,12.80
2023-05-08T17:00:02.677Z,12.90
2023-05-08T17:02:32.014Z,12.90
2023-05-08T17:05:00.451Z,12.80
2023-05-08T17:07:28.406Z,12.70
2023-05-08T17:09:57.709Z,12.70
2023-05-08T17:12:25.684Z,12.60
2023-05-08T17:14:53.432Z,12.70
2023-05-08T17:17:21.104Z,12.70
2023-05-08T17:19:48.910Z,12.70
2023-05-08T17:22:17.983Z,12.70
2023-05-08T17:24:45.676Z,12.70
2023-05-08T17:27:13.457Z,12.70
2023-05-08T17:29:41.126Z,12.70
2023-05-08T17:32:12.096Z,12.80
2023-05-08T17:34:42.623Z,12.80
2023-05-08T17:37:10.566Z,12.70
2023-05-08T17:39:38.232Z,12.80
2023-05-08T17:42:09.149Z,12.70
2023-05-08T17:44:36.937Z,12.80
2023-05-08T17:47:04.768Z,12.90
2023-05-08T17:49:32.317Z,12.80
2023-05-08T17:51:59.965Z,12.80
2023-05-08T17:54:27.863Z,12.90
2023-05-08T17:56:55.796Z,12.90
2023-05-08T17:59:23.512Z,12.90
2023-05-08T18:01:51.526Z,12.70
2023-05-08T18:04:19.192Z,12.60
2023-05-08T18:06:49.191Z,12.50
2023-05-08T18:09:17.170Z,12.60
2023-05-08T18:11:44.848Z,12.60
2023-05-08T18:14:12.500Z,12.60
2023-05-08T18:16:40.219Z,12.50
2023-05-08T18:19:07.940Z,12.50
2023-05-08T18:21:35.599Z,12.50
2023-05-08T18:24:03.243Z,12.50
2023-05-08T18:26:30.884Z,12.50
2023-05-08T18:28:58.816Z,12.50
2023-05-08T18:31:26.701Z,12.50
2023-05-08T18:33:54.571Z,12.50
2023-05-08T18:36:22.528Z,12.50
2023-05-08T18:38:50.271Z,12.50
2023-05-08T18:41:18.056Z,12.50
2023-05-08T18:43:45.747Z,12.50
2023-05-08T18:46:14.312Z,12.40
2023-05-08T18:48:42.159Z,12.40
2023-05-08T18:51:10.397Z,12.30
2023-05-08T18:53:38.989Z,12.40
2023-05-08T18:56:06.999Z,12.40
2023-05-08T18:58:34.776Z,12.40
2023-05-08T19:01:02.467Z,12.50
2023-05-08T19:03:30.307Z,12.60
2023-05-08T19:05:58.304Z,12.60
2023-05-08T19:08:25.965Z,12.50
2023-05-08T19:10:55.768Z,12.50
2023-05-08T19:13:23.576Z,12.40
2023-05-08T19:15:51.775Z,12.40
2023-05-08T19:18:19.527Z,12.30
2023-05-08T19:20:47.201Z,12.30
2023-05-08T19:23:17.410Z,12.40
2023-05-08T19:25:45.164Z,12.30
2023-05-08T19:28:13.028Z,12.20
2023-05-08T19:30:40.909Z,12.30
2023-05-08T19:33:08.896Z,12.40
2023-05-08T19:35:36.581Z,12.30
2023-05-08T19:38:04.385Z,12.20
2023-05-08T19:40:33.077Z,12.20
2023-05-08T19:43:04.185Z,12.20
2023-05-08T19:45:31.901Z,12.30
2023-05-08T19:48:07.955Z,12.40
2023-05-08T19:50:38.192Z,12.30
2023-05-08T19:53:05.994Z,12.30
2023-05-08T19:55:33.700Z,12.30
2023-05-08T19:58:01.322Z,12.30
2023-05-08T20:00:29.078Z,12.30
2023-05-08T20:02:56.968Z,12.30
2023-05-08T20:05:24.704Z,12.30
2023-05-08T20:07:52.510Z,12.20
2023-05-08T20:10:20.468Z,12.20
2023-05-08T20:12:48.145Z,12.30
2023-05-08T20:15:15.891Z,12.20
2023-05-08T20:17:43.660Z,12.20
2023-05-08T20:20:12.104Z,12.20
2023-05-08T20:22:39.852Z,12.10
2023-05-08T20:25:08.426Z,12.10
2023-05-08T20:27:36.313Z,12.00
2023-05-08T20:30:05.165Z,12.00
2023-05-08T20:32:33.144Z,12.00
2023-05-08T20:35:00.806Z,11.90
2023-05-08T20:37:28.507Z,11.80
2023-05-08T20:39:56.608Z,11.80
2023-05-08T20:42:24.552Z,11.80
2023-05-08T20:44:52.139Z,11.70
2023-05-08T20:47:20.066Z,11.80
2023-05-08T20:49:47.812Z,11.80
2023-05-08T20:52:15.616Z,11.80
2023-05-08T20:54:45.506Z,11.80
2023-05-08T20:57:14.464Z,11.70
2023-05-08T20:59:42.085Z,11.70
2023-05-08T21:02:09.761Z,11.70
2023-05-08T21:04:38.171Z,11.80
2023-05-08T21:07:05.961Z,11.70
2023-05-08T21:09:33.819Z,11.70
2023-05-08T21:12:01.630Z,11.70
2023-05-08T21:14:29.353Z,11.70
2023-05-08T21:16:57.082Z,11.60
2023-05-08T21:19:24.811Z,11.70
2023-05-08T21:21:52.477Z,11.60
2023-05-08T21:24:20.684Z,11.60
2023-05-08T21:26:48.295Z,11.60
2023-05-08T21:29:16.022Z,11.50
2023-05-08T21:31:43.732Z,11.60
2023-05-08T21:34:12.317Z,11.60
2023-05-08T21:36:40.159Z,11.60
2023-05-08T21:39:08.126Z,11.60
2023-05-08T21:41:36.011Z,11.50
2023-05-08T21:44:03.714Z,11.50
2023-05-08T21:46:31.400Z,11.40
2023-05-08T21:48:59.199Z,11.40
2023-05-08T21:51:26.904Z,11.30
2023-05-08T21:53:54.596Z,11.40
2023-05-08T21:56:22.883Z,11.20
2023-05-08T21:58:50.634Z,11.30
2023-05-08T22:01:18.338Z,11.30
2023-05-08T22:03:46.103Z,11.30
2023-05-08T22:06:13.816Z,11.30
2023-05-08T22:08:41.527Z,11.30
2023-05-08T22:11:09.212Z,11.20
2023-05-08T22:13:36.872Z,11.20
2023-05-08T22:16:05.432Z,11.20
2023-05-08T22:18:33.158Z,11.20
2023-05-08T22:21:00.872Z,11.20
2023-05-08T22:23:28.505Z,11.20
2023-05-08T22:25:56.138Z,11.20
2023-05-08T22:28:23.882Z,11.10
2023-05-08T22:30:51.573Z,11.20
2023-05-08T22:33:19.209Z,11.20
2023-05-08T22:35:46.875Z,11.10
2023-05-08T22:38:14.948Z,11.10
2023-05-08T22:40:42.765Z,11.10
2023-05-08T22:43:13.537Z,11.10
2023-05-08T22:45:41.300Z,11.20
2023-05-08T22:48:10.345Z,11.20
2023-05-08T22:50:38.138Z,11.10
2023-05-08T22:53:08.200Z,11.10
2023-05-08T22:55:36.560Z,11.10
2023-05-08T22:58:04.617Z,11.00
2023-05-08T23:00:32.344Z,11.00
2023-05-08T23:03:00.126Z,11.00
2023-05-08T23:05:27.995Z,11.00
2023-05-08T23:07:55.751Z,11.00
2023-05-08T23:10:23.454Z,11.00
2023-05-08T23:12:51.153Z,11.00
2023-05-08T23:15:21.112Z,11.10
2023-05-08T23:17:49.190Z,11.00
2023-05-08T23:20:17.021Z,11.00
2023-05-08T23:22:44.730Z,10.90
2023-05-08T23:25:12.586Z,11.00
2023-05-08T23:27:40.687Z,10.90
2023-05-08T23:30:08.845Z,10.70
2023-05-08T23:32:36.510Z,10.70
2023-05-08T23:35:04.403Z,10.70
2023-05-08T23:37:32.139Z,10.60
2023-05-08T23:39:59.830Z,10.60
2023-05-08T23:42:28.116Z,10.60
2023-05-08T23:44:56.388Z,10.50
2023-05-08T23:47:24.129Z,10.50
2023-05-08T23:49:51.859Z,10.60
2023-05-08T23:52:20.969Z,10.50
2023-05-08T23:54:48.768Z,10.40
2023-05-08T23:57:16.492Z,10.40
2023-05-08T23:59:44.120Z,10.30
